sensor_id;sensor_type;location;lat;lon;timestamp;P1;durP1;ratioP1;P2;durP2;ratioP2
11396;SDS011;5754;43.726;7.416;2023-04-06T00:01:59;4.60;;;1.80;;
11396;SDS011;5754;43.726;7.416;2023-04-06T00:04:33;3.53;;;2.10;;
11396;SDS011;5754;43.726;7.416;2023-04-06T00:07:10;3.30;;;2.00;;
11396;SDS011;5754;43.726;7.416;2023-04-06T00:09:44;3.53;;;1.87;;
11396;SDS011;5754;43.726;7.416;2023-04-06T00:12:19;2.17;;;1.77;;
11396;SDS011;5754;43.726;7.416;2023-04-06T00:14:53;4.37;;;2.63;;
11396;SDS011;5754;43.726;7.416;2023-04-06T00:17:28;4.50;;;2.07;;
11396;SDS011;5754;43.726;7.416;2023-04-06T00:20:02;3.20;;;1.90;;
11396;SDS011;5754;43.726;7.416;2023-04-06T00:22:37;2.67;;;1.80;;
11396;SDS011;5754;43.726;7.416;2023-04-06T00:25:11;5.80;;;2.03;;
11396;SDS011;5754;43.726;7.416;2023-04-06T00:27:46;2.80;;;1.90;;
11396;SDS011;5754;43.726;7.416;2023-04-06T00:30:21;2.03;;;1.83;;
11396;SDS011;5754;43.726;7.416;2023-04-06T00:32:56;2.60;;;1.77;;
11396;SDS011;5754;43.726;7.416;2023-04-06T00:35:31;2.20;;;1.97;;
11396;SDS011;5754;43.726;7.416;2023-04-06T00:38:06;2.83;;;2.03;;
11396;SDS011;5754;43.726;7.416;2023-04-06T00:40:40;3.80;;;2.20;;
11396;SDS011;5754;43.726;7.416;2023-04-06T00:43:16;3.63;;;2.30;;
11396;SDS011;5754;43.726;7.416;2023-04-06T00:45:51;3.07;;;2.00;;
11396;SDS011;5754;43.726;7.416;2023-04-06T00:48:26;3.53;;;2.00;;
11396;SDS011;5754;43.726;7.416;2023-04-06T00:51:00;6.13;;;2.00;;
11396;SDS011;5754;43.726;7.416;2023-04-06T00:53:35;4.03;;;2.30;;
11396;SDS011;5754;43.726;7.416;2023-04-06T00:56:09;3.53;;;1.97;;
11396;SDS011;5754;43.726;7.416;2023-04-06T00:58:53;2.97;;;2.03;;
11396;SDS011;5754;43.726;7.416;2023-04-06T01:01:29;4.00;;;2.30;;
11396;SDS011;5754;43.726;7.416;2023-04-06T01:04:11;4.70;;;2.03;;
11396;SDS011;5754;43.726;7.416;2023-04-06T01:06:49;3.13;;;2.07;;
11396;SDS011;5754;43.726;7.416;2023-04-06T01:09:24;4.63;;;2.20;;
11396;SDS011;5754;43.726;7.416;2023-04-06T01:11:59;3.50;;;1.87;;
11396;SDS011;5754;43.726;7.416;2023-04-06T01:14:35;3.40;;;1.93;;
11396;SDS011;5754;43.726;7.416;2023-04-06T01:17:11;3.30;;;1.90;;
11396;SDS011;5754;43.726;7.416;2023-04-06T01:19:46;4.53;;;2.10;;
11396;SDS011;5754;43.726;7.416;2023-04-06T01:22:28;3.63;;;2.33;;
11396;SDS011;5754;43.726;7.416;2023-04-06T01:25:06;3.83;;;2.40;;
11396;SDS011;5754;43.726;7.416;2023-04-06T01:27:55;4.47;;;2.10;;
11396;SDS011;5754;43.726;7.416;2023-04-06T01:37:19;5.40;;;2.30;;
11396;SDS011;5754;43.726;7.416;2023-04-06T01:39:57;5.23;;;2.43;;
11396;SDS011;5754;43.726;7.416;2023-04-06T01:42:43;4.00;;;2.17;;
11396;SDS011;5754;43.726;7.416;2023-04-06T01:45:19;3.93;;;2.40;;
11396;SDS011;5754;43.726;7.416;2023-04-06T01:47:55;3.60;;;2.17;;
11396;SDS011;5754;43.726;7.416;2023-04-06T01:50:31;4.00;;;2.63;;
11396;SDS011;5754;43.726;7.416;2023-04-06T01:53:06;5.27;;;2.57;;
11396;SDS011;5754;43.726;7.416;2023-04-06T01:55:41;3.57;;;2.77;;
11396;SDS011;5754;43.726;7.416;2023-04-06T01:58:36;5.13;;;2.80;;
11396;SDS011;5754;43.726;7.416;2023-04-06T02:01:11;5.07;;;2.77;;
11396;SDS011;5754;43.726;7.416;2023-04-06T02:03:55;5.80;;;2.60;;
11396;SDS011;5754;43.726;7.416;2023-04-06T02:06:30;6.33;;;2.70;;
11396;SDS011;5754;43.726;7.416;2023-04-06T02:09:06;3.10;;;2.40;;
11396;SDS011;5754;43.726;7.416;2023-04-06T02:11:42;3.97;;;2.40;;
11396;SDS011;5754;43.726;7.416;2023-04-06T02:14:16;5.83;;;2.80;;
11396;SDS011;5754;43.726;7.416;2023-04-06T02:16:55;3.03;;;2.50;;
11396;SDS011;5754;43.726;7.416;2023-04-06T02:19:29;3.43;;;2.87;;
11396;SDS011;5754;43.726;7.416;2023-04-06T02:22:04;3.07;;;2.20;;
11396;SDS011;5754;43.726;7.416;2023-04-06T02:24:39;5.30;;;2.63;;
11396;SDS011;5754;43.726;7.416;2023-04-06T02:27:14;5.13;;;2.70;;
11396;SDS011;5754;43.726;7.416;2023-04-06T02:29:53;4.20;;;2.80;;
11396;SDS011;5754;43.726;7.416;2023-04-06T02:32:27;5.80;;;2.67;;
11396;SDS011;5754;43.726;7.416;2023-04-06T02:35:03;5.03;;;2.70;;
11396;SDS011;5754;43.726;7.416;2023-04-06T02:37:39;4.03;;;2.43;;
11396;SDS011;5754;43.726;7.416;2023-04-06T02:40:13;4.13;;;2.80;;
11396;SDS011;5754;43.726;7.416;2023-04-06T02:42:48;4.53;;;2.77;;
11396;SDS011;5754;43.726;7.416;2023-04-06T02:45:22;3.57;;;2.63;;
11396;SDS011;5754;43.726;7.416;2023-04-06T02:47:57;5.03;;;2.53;;
11396;SDS011;5754;43.726;7.416;2023-04-06T02:50:32;3.33;;;2.40;;
11396;SDS011;5754;43.726;7.416;2023-04-06T02:53:10;4.30;;;2.70;;
11396;SDS011;5754;43.726;7.416;2023-04-06T02:55:46;4.33;;;2.60;;
11396;SDS011;5754;43.726;7.416;2023-04-06T02:58:21;3.63;;;2.70;;
11396;SDS011;5754;43.726;7.416;2023-04-06T03:00:59;6.20;;;2.80;;
11396;SDS011;5754;43.726;7.416;2023-04-06T03:03:34;2.73;;;2.33;;
11396;SDS011;5754;43.726;7.416;2023-04-06T03:06:12;2.83;;;2.27;;
11396;SDS011;5754;43.726;7.416;2023-04-06T03:08:47;4.10;;;2.30;;
11396;SDS011;5754;43.726;7.416;2023-04-06T03:11:23;5.47;;;2.77;;
11396;SDS011;5754;43.726;7.416;2023-04-06T03:13:58;7.10;;;2.80;;
11396;SDS011;5754;43.726;7.416;2023-04-06T03:16:34;4.13;;;2.80;;
11396;SDS011;5754;43.726;7.416;2023-04-06T03:19:09;3.10;;;2.60;;
11396;SDS011;5754;43.726;7.416;2023-04-06T03:21:44;3.20;;;2.90;;
11396;SDS011;5754;43.726;7.416;2023-04-06T03:24:19;3.10;;;2.30;;
11396;SDS011;5754;43.726;7.416;2023-04-06T03:26:54;4.20;;;2.47;;
11396;SDS011;5754;43.726;7.416;2023-04-06T03:29:29;3.27;;;2.70;;
11396;SDS011;5754;43.726;7.416;2023-04-06T03:32:05;3.27;;;2.90;;
11396;SDS011;5754;43.726;7.416;2023-04-06T03:34:44;5.07;;;2.73;;
11396;SDS011;5754;43.726;7.416;2023-04-06T03:37:19;3.97;;;3.03;;
11396;SDS011;5754;43.726;7.416;2023-04-06T03:39:56;3.27;;;2.40;;
11396;SDS011;5754;43.726;7.416;2023-04-06T03:42:32;3.63;;;2.50;;
11396;SDS011;5754;43.726;7.416;2023-04-06T03:45:14;3.20;;;2.77;;
11396;SDS011;5754;43.726;7.416;2023-04-06T03:47:53;3.87;;;2.60;;
11396;SDS011;5754;43.726;7.416;2023-04-06T03:50:28;3.40;;;2.50;;
11396;SDS011;5754;43.726;7.416;2023-04-06T03:53:03;6.20;;;2.90;;
11396;SDS011;5754;43.726;7.416;2023-04-06T03:55:38;4.07;;;2.90;;
11396;SDS011;5754;43.726;7.416;2023-04-06T03:58:13;4.60;;;3.03;;
11396;SDS011;5754;43.726;7.416;2023-04-06T04:00:49;5.10;;;2.80;;
11396;SDS011;5754;43.726;7.416;2023-04-06T04:03:23;3.70;;;2.70;;
11396;SDS011;5754;43.726;7.416;2023-04-06T04:06:01;3.40;;;2.80;;
11396;SDS011;5754;43.726;7.416;2023-04-06T04:08:35;4.93;;;2.50;;
11396;SDS011;5754;43.726;7.416;2023-04-06T04:11:09;4.90;;;2.50;;
11396;SDS011;5754;43.726;7.416;2023-04-06T04:13:45;5.83;;;2.93;;
11396;SDS011;5754;43.726;7.416;2023-04-06T04:16:20;3.67;;;2.70;;
11396;SDS011;5754;43.726;7.416;2023-04-06T04:18:55;4.20;;;2.33;;
11396;SDS011;5754;43.726;7.416;2023-04-06T04:21:31;5.20;;;2.60;;
11396;SDS011;5754;43.726;7.416;2023-04-06T04:24:11;4.60;;;2.80;;
11396;SDS011;5754;43.726;7.416;2023-04-06T04:26:47;3.50;;;2.70;;
11396;SDS011;5754;43.726;7.416;2023-04-06T04:29:22;4.33;;;2.80;;
11396;SDS011;5754;43.726;7.416;2023-04-06T04:31:57;4.53;;;2.73;;
11396;SDS011;5754;43.726;7.416;2023-04-06T04:34:32;3.60;;;2.77;;
11396;SDS011;5754;43.726;7.416;2023-04-06T04:37:07;4.83;;;3.10;;
11396;SDS011;5754;43.726;7.416;2023-04-06T04:39:53;3.57;;;2.70;;
11396;SDS011;5754;43.726;7.416;2023-04-06T04:42:27;3.87;;;2.93;;
11396;SDS011;5754;43.726;7.416;2023-04-06T04:45:03;3.73;;;3.00;;
11396;SDS011;5754;43.726;7.416;2023-04-06T04:47:42;3.37;;;3.00;;
11396;SDS011;5754;43.726;7.416;2023-04-06T04:50:18;3.97;;;3.10;;
11396;SDS011;5754;43.726;7.416;2023-04-06T04:52:53;5.17;;;3.77;;
11396;SDS011;5754;43.726;7.416;2023-04-06T04:55:31;4.33;;;3.40;;
11396;SDS011;5754;43.726;7.416;2023-04-06T04:58:06;7.33;;;3.73;;
11396;SDS011;5754;43.726;7.416;2023-04-06T05:00:56;3.83;;;3.33;;
11396;SDS011;5754;43.726;7.416;2023-04-06T05:03:31;4.33;;;3.37;;
11396;SDS011;5754;43.726;7.416;2023-04-06T05:06:12;4.73;;;3.37;;
11396;SDS011;5754;43.726;7.416;2023-04-06T05:08:47;4.57;;;3.30;;
11396;SDS011;5754;43.726;7.416;2023-04-06T05:11:21;5.47;;;3.60;;
11396;SDS011;5754;43.726;7.416;2023-04-06T05:14:04;6.30;;;3.57;;
11396;SDS011;5754;43.726;7.416;2023-04-06T05:16:40;4.33;;;3.30;;
11396;SDS011;5754;43.726;7.416;2023-04-06T05:19:15;3.67;;;3.30;;
11396;SDS011;5754;43.726;7.416;2023-04-06T05:21:51;5.70;;;3.70;;
11396;SDS011;5754;43.726;7.416;2023-04-06T05:24:25;4.63;;;3.43;;
11396;SDS011;5754;43.726;7.416;2023-04-06T05:27:01;5.80;;;3.33;;
11396;SDS011;5754;43.726;7.416;2023-04-06T05:29:35;7.63;;;4.00;;
11396;SDS011;5754;43.726;7.416;2023-04-06T05:32:11;5.00;;;3.60;;
11396;SDS011;5754;43.726;7.416;2023-04-06T05:34:46;8.17;;;4.33;;
11396;SDS011;5754;43.726;7.416;2023-04-06T05:37:22;5.37;;;3.40;;
11396;SDS011;5754;43.726;7.416;2023-04-06T05:39:56;9.60;;;4.27;;
11396;SDS011;5754;43.726;7.416;2023-04-06T05:42:41;5.23;;;3.53;;
11396;SDS011;5754;43.726;7.416;2023-04-06T05:45:17;5.07;;;4.17;;
11396;SDS011;5754;43.726;7.416;2023-04-06T05:47:56;5.37;;;3.80;;
11396;SDS011;5754;43.726;7.416;2023-04-06T05:50:35;5.80;;;3.87;;
11396;SDS011;5754;43.726;7.416;2023-04-06T05:53:10;7.33;;;4.27;;
11396;SDS011;5754;43.726;7.416;2023-04-06T05:55:48;6.43;;;4.60;;
11396;SDS011;5754;43.726;7.416;2023-04-06T05:58:24;9.47;;;4.60;;
11396;SDS011;5754;43.726;7.416;2023-04-06T06:01:00;7.70;;;5.50;;
11396;SDS011;5754;43.726;7.416;2023-04-06T06:03:43;9.43;;;4.90;;
11396;SDS011;5754;43.726;7.416;2023-04-06T06:06:18;9.03;;;4.67;;
11396;SDS011;5754;43.726;7.416;2023-04-06T06:10:00;11.83;;;4.70;;
11396;SDS011;5754;43.726;7.416;2023-04-06T06:12:38;7.07;;;4.80;;
11396;SDS011;5754;43.726;7.416;2023-04-06T06:15:14;9.20;;;5.20;;
11396;SDS011;5754;43.726;7.416;2023-04-06T06:17:51;7.50;;;5.10;;
11396;SDS011;5754;43.726;7.416;2023-04-06T06:20:26;10.53;;;5.43;;
11396;SDS011;5754;43.726;7.416;2023-04-06T06:23:00;9.33;;;4.93;;
11396;SDS011;5754;43.726;7.416;2023-04-06T06:25:35;6.47;;;4.50;;
11396;SDS011;5754;43.726;7.416;2023-04-06T06:28:11;6.80;;;4.30;;
11396;SDS011;5754;43.726;7.416;2023-04-06T06:30:46;8.53;;;4.90;;
11396;SDS011;5754;43.726;7.416;2023-04-06T06:33:25;6.90;;;4.50;;
11396;SDS011;5754;43.726;7.416;2023-04-06T06:36:01;9.97;;;4.57;;
11396;SDS011;5754;43.726;7.416;2023-04-06T06:38:36;6.97;;;4.57;;
11396;SDS011;5754;43.726;7.416;2023-04-06T06:43:56;6.37;;;4.10;;
11396;SDS011;5754;43.726;7.416;2023-04-06T06:46:30;4.77;;;3.77;;
11396;SDS011;5754;43.726;7.416;2023-04-06T06:49:06;6.53;;;3.97;;
11396;SDS011;5754;43.726;7.416;2023-04-06T06:51:40;5.97;;;4.23;;
11396;SDS011;5754;43.726;7.416;2023-04-06T06:54:15;5.17;;;4.47;;
11396;SDS011;5754;43.726;7.416;2023-04-06T06:56:49;5.32;;;4.10;;
11396;SDS011;5754;43.726;7.416;2023-04-06T06:59:24;6.37;;;5.03;;
11396;SDS011;5754;43.726;7.416;2023-04-06T07:04:42;5.93;;;4.27;;
11396;SDS011;5754;43.726;7.416;2023-04-06T07:07:17;6.60;;;4.50;;
11396;SDS011;5754;43.726;7.416;2023-04-06T07:09:51;5.65;;;4.50;;
11396;SDS011;5754;43.726;7.416;2023-04-06T07:12:26;4.60;;;4.20;;
11396;SDS011;5754;43.726;7.416;2023-04-06T07:15:03;8.38;;;4.15;;
11396;SDS011;5754;43.726;7.416;2023-04-06T07:17:40;5.18;;;4.43;;
11396;SDS011;5754;43.726;7.416;2023-04-06T07:20:14;10.15;;;4.35;;
11396;SDS011;5754;43.726;7.416;2023-04-06T07:22:49;6.45;;;4.47;;
11396;SDS011;5754;43.726;7.416;2023-04-06T07:25:24;7.10;;;4.22;;
11396;SDS011;5754;43.726;7.416;2023-04-06T07:27:58;5.97;;;4.37;;
11396;SDS011;5754;43.726;7.416;2023-04-06T07:30:33;7.73;;;5.00;;
11396;SDS011;5754;43.726;7.416;2023-04-06T07:33:09;7.90;;;5.70;;
11396;SDS011;5754;43.726;7.416;2023-04-06T07:35:43;11.77;;;5.70;;
11396;SDS011;5754;43.726;7.416;2023-04-06T07:38:19;8.23;;;6.13;;
11396;SDS011;5754;43.726;7.416;2023-04-06T07:40:54;9.33;;;5.57;;
11396;SDS011;5754;43.726;7.416;2023-04-06T07:43:29;9.47;;;7.43;;
11396;SDS011;5754;43.726;7.416;2023-04-06T07:46:04;9.23;;;6.70;;
11396;SDS011;5754;43.726;7.416;2023-04-06T07:48:39;9.17;;;7.23;;
11396;SDS011;5754;43.726;7.416;2023-04-06T07:51:15;9.80;;;8.43;;
11396;SDS011;5754;43.726;7.416;2023-04-06T07:53:51;10.63;;;8.20;;
11396;SDS011;5754;43.726;7.416;2023-04-06T07:56:26;9.60;;;8.50;;
11396;SDS011;5754;43.726;7.416;2023-04-06T07:59:01;9.10;;;7.63;;
11396;SDS011;5754;43.726;7.416;2023-04-06T08:01:36;9.45;;;8.35;;
11396;SDS011;5754;43.726;7.416;2023-04-06T08:04:10;11.70;;;7.90;;
11396;SDS011;5754;43.726;7.416;2023-04-06T08:06:47;9.57;;;8.17;;
11396;SDS011;5754;43.726;7.416;2023-04-06T08:09:22;11.63;;;8.30;;
11396;SDS011;5754;43.726;7.416;2023-04-06T08:11:56;12.53;;;8.13;;
11396;SDS011;5754;43.726;7.416;2023-04-06T08:14:32;10.47;;;8.00;;
11396;SDS011;5754;43.726;7.416;2023-04-06T08:17:08;8.83;;;7.77;;
11396;SDS011;5754;43.726;7.416;2023-04-06T08:19:43;13.50;;;8.40;;
11396;SDS011;5754;43.726;7.416;2023-04-06T08:22:22;14.10;;;8.73;;
11396;SDS011;5754;43.726;7.416;2023-04-06T08:24:57;9.77;;;8.77;;
11396;SDS011;5754;43.726;7.416;2023-04-06T08:27:31;9.70;;;8.67;;
11396;SDS011;5754;43.726;7.416;2023-04-06T08:30:07;10.07;;;9.03;;
11396;SDS011;5754;43.726;7.416;2023-04-06T08:32:42;10.17;;;8.47;;
11396;SDS011;5754;43.726;7.416;2023-04-06T08:35:17;9.60;;;8.17;;
11396;SDS011;5754;43.726;7.416;2023-04-06T08:37:54;14.73;;;8.93;;
11396;SDS011;5754;43.726;7.416;2023-04-06T08:40:29;10.47;;;9.33;;
11396;SDS011;5754;43.726;7.416;2023-04-06T08:43:06;10.23;;;8.63;;
11396;SDS011;5754;43.726;7.416;2023-04-06T08:45:41;10.60;;;8.77;;
11396;SDS011;5754;43.726;7.416;2023-04-06T08:48:17;13.80;;;8.57;;
11396;SDS011;5754;43.726;7.416;2023-04-06T08:50:52;10.37;;;8.60;;
11396;SDS011;5754;43.726;7.416;2023-04-06T08:53:28;13.53;;;8.53;;
11396;SDS011;5754;43.726;7.416;2023-04-06T08:56:04;14.63;;;8.30;;
11396;SDS011;5754;43.726;7.416;2023-04-06T08:58:39;13.63;;;8.70;;
11396;SDS011;5754;43.726;7.416;2023-04-06T09:01:14;12.63;;;8.23;;
11396;SDS011;5754;43.726;7.416;2023-04-06T09:03:55;11.23;;;9.10;;
11396;SDS011;5754;43.726;7.416;2023-04-06T09:06:30;11.37;;;8.40;;
11396;SDS011;5754;43.726;7.416;2023-04-06T09:09:06;11.07;;;8.20;;
11396;SDS011;5754;43.726;7.416;2023-04-06T09:11:47;9.57;;;8.00;;
11396;SDS011;5754;43.726;7.416;2023-04-06T09:14:35;9.27;;;8.37;;
11396;SDS011;5754;43.726;7.416;2023-04-06T09:17:19;11.10;;;8.33;;
11396;SDS011;5754;43.726;7.416;2023-04-06T09:19:55;9.03;;;7.87;;
11396;SDS011;5754;43.726;7.416;2023-04-06T09:22:37;9.57;;;8.20;;
11396;SDS011;5754;43.726;7.416;2023-04-06T09:25:17;11.37;;;8.50;;
11396;SDS011;5754;43.726;7.416;2023-04-06T09:28:03;19.30;;;16.17;;
11396;SDS011;5754;43.726;7.416;2023-04-06T09:30:47;50.27;;;35.50;;
11396;SDS011;5754;43.726;7.416;2023-04-06T09:33:25;32.20;;;25.33;;
11396;SDS011;5754;43.726;7.416;2023-04-06T09:36:00;21.43;;;15.90;;
11396;SDS011;5754;43.726;7.416;2023-04-06T09:38:36;11.27;;;9.93;;
11396;SDS011;5754;43.726;7.416;2023-04-06T09:41:11;17.43;;;11.60;;
11396;SDS011;5754;43.726;7.416;2023-04-06T09:44:01;9.97;;;8.30;;
11396;SDS011;5754;43.726;7.416;2023-04-06T09:46:40;10.47;;;7.23;;
11396;SDS011;5754;43.726;7.416;2023-04-06T09:49:24;10.07;;;8.20;;
11396;SDS011;5754;43.726;7.416;2023-04-06T09:52:02;8.33;;;7.47;;
11396;SDS011;5754;43.726;7.416;2023-04-06T09:54:38;8.43;;;6.50;;
11396;SDS011;5754;43.726;7.416;2023-04-06T10:01:10;9.93;;;7.43;;
11396;SDS011;5754;43.726;7.416;2023-04-06T10:09:30;9.67;;;7.20;;
11396;SDS011;5754;43.726;7.416;2023-04-06T10:12:09;7.53;;;6.77;;
11396;SDS011;5754;43.726;7.416;2023-04-06T10:14:49;9.23;;;6.60;;
11396;SDS011;5754;43.726;7.416;2023-04-06T10:18:10;7.20;;;6.50;;
11396;SDS011;5754;43.726;7.416;2023-04-06T10:20:53;7.73;;;6.73;;
11396;SDS011;5754;43.726;7.416;2023-04-06T10:23:30;11.50;;;6.63;;
11396;SDS011;5754;43.726;7.416;2023-04-06T10:26:12;7.50;;;5.80;;
11396;SDS011;5754;43.726;7.416;2023-04-06T10:28:47;7.10;;;5.97;;
11396;SDS011;5754;43.726;7.416;2023-04-06T10:31:26;5.87;;;5.37;;
11396;SDS011;5754;43.726;7.416;2023-04-06T10:34:02;5.40;;;4.90;;
11396;SDS011;5754;43.726;7.416;2023-04-06T10:36:37;6.90;;;5.77;;
11396;SDS011;5754;43.726;7.416;2023-04-06T10:39:11;6.00;;;4.97;;
11396;SDS011;5754;43.726;7.416;2023-04-06T10:41:46;6.27;;;5.30;;
11396;SDS011;5754;43.726;7.416;2023-04-06T10:44:23;8.20;;;5.90;;
11396;SDS011;5754;43.726;7.416;2023-04-06T10:46:59;7.73;;;5.40;;
11396;SDS011;5754;43.726;7.416;2023-04-06T10:49:34;6.57;;;5.97;;
11396;SDS011;5754;43.726;7.416;2023-04-06T10:52:08;8.70;;;5.17;;
11396;SDS011;5754;43.726;7.416;2023-04-06T10:54:44;6.60;;;5.03;;
11396;SDS011;5754;43.726;7.416;2023-04-06T10:57:27;6.90;;;5.50;;
11396;SDS011;5754;43.726;7.416;2023-04-06T11:00:03;6.00;;;5.40;;
11396;SDS011;5754;43.726;7.416;2023-04-06T11:02:38;6.70;;;5.10;;
11396;SDS011;5754;43.726;7.416;2023-04-06T11:05:12;6.50;;;5.10;;
11396;SDS011;5754;43.726;7.416;2023-04-06T11:07:47;7.10;;;5.00;;
11396;SDS011;5754;43.726;7.416;2023-04-06T11:10:22;6.27;;;4.77;;
11396;SDS011;5754;43.726;7.416;2023-04-06T11:12:56;6.23;;;5.30;;
11396;SDS011;5754;43.726;7.416;2023-04-06T11:15:33;8.77;;;5.67;;
11396;SDS011;5754;43.726;7.416;2023-04-06T11:18:10;9.33;;;5.57;;
11396;SDS011;5754;43.726;7.416;2023-04-06T11:20:47;7.80;;;5.67;;
11396;SDS011;5754;43.726;7.416;2023-04-06T11:23:23;8.10;;;5.70;;
11396;SDS011;5754;43.726;7.416;2023-04-06T11:26:02;7.33;;;5.37;;
11396;SDS011;5754;43.726;7.416;2023-04-06T11:28:36;9.87;;;5.90;;
11396;SDS011;5754;43.726;7.416;2023-04-06T11:31:11;9.83;;;6.17;;
11396;SDS011;5754;43.726;7.416;2023-04-06T11:33:45;11.80;;;6.90;;
11396;SDS011;5754;43.726;7.416;2023-04-06T11:36:19;6.90;;;5.83;;
11396;SDS011;5754;43.726;7.416;2023-04-06T11:38:55;6.90;;;5.30;;
11396;SDS011;5754;43.726;7.416;2023-04-06T11:41:32;9.97;;;6.33;;
11396;SDS011;5754;43.726;7.416;2023-04-06T11:44:07;9.20;;;6.97;;
11396;SDS011;5754;43.726;7.416;2023-04-06T11:46:50;7.37;;;5.80;;
11396;SDS011;5754;43.726;7.416;2023-04-06T11:49:28;5.80;;;5.07;;
11396;SDS011;5754;43.726;7.416;2023-04-06T11:52:13;6.17;;;5.30;;
11396;SDS011;5754;43.726;7.416;2023-04-06T11:54:49;9.30;;;6.10;;
11396;SDS011;5754;43.726;7.416;2023-04-06T11:57:24;9.33;;;5.53;;
11396;SDS011;5754;43.726;7.416;2023-04-06T11:59:58;12.40;;;6.37;;
11396;SDS011;5754;43.726;7.416;2023-04-06T12:02:33;9.90;;;6.03;;
11396;SDS011;5754;43.726;7.416;2023-04-06T12:05:10;9.27;;;6.83;;
11396;SDS011;5754;43.726;7.416;2023-04-06T12:07:45;9.57;;;7.27;;
11396;SDS011;5754;43.726;7.416;2023-04-06T12:10:19;10.67;;;7.20;;
11396;SDS011;5754;43.726;7.416;2023-04-06T12:12:54;8.27;;;7.10;;
11396;SDS011;5754;43.726;7.416;2023-04-06T12:15:28;8.43;;;6.80;;
11396;SDS011;5754;43.726;7.416;2023-04-06T12:18:03;7.87;;;6.40;;
11396;SDS011;5754;43.726;7.416;2023-04-06T12:20:37;9.60;;;7.20;;
11396;SDS011;5754;43.726;7.416;2023-04-06T12:23:11;8.00;;;6.13;;
11396;SDS011;5754;43.726;7.416;2023-04-06T12:25:46;10.80;;;8.00;;
11396;SDS011;5754;43.726;7.416;2023-04-06T12:28:20;9.27;;;7.93;;
11396;SDS011;5754;43.726;7.416;2023-04-06T12:30:57;9.17;;;7.33;;
11396;SDS011;5754;43.726;7.416;2023-04-06T12:33:31;9.43;;;7.27;;
11396;SDS011;5754;43.726;7.416;2023-04-06T12:36:11;11.07;;;8.00;;
11396;SDS011;5754;43.726;7.416;2023-04-06T12:38:46;9.20;;;6.30;;
11396;SDS011;5754;43.726;7.416;2023-04-06T12:41:22;9.80;;;6.97;;
11396;SDS011;5754;43.726;7.416;2023-04-06T12:43:58;8.03;;;6.60;;
11396;SDS011;5754;43.726;7.416;2023-04-06T12:46:33;7.70;;;6.90;;
11396;SDS011;5754;43.726;7.416;2023-04-06T12:49:08;8.53;;;7.13;;
11396;SDS011;5754;43.726;7.416;2023-04-06T12:51:43;9.87;;;6.73;;
11396;SDS011;5754;43.726;7.416;2023-04-06T12:54:18;7.33;;;6.60;;
11396;SDS011;5754;43.726;7.416;2023-04-06T12:56:54;6.90;;;6.20;;
11396;SDS011;5754;43.726;7.416;2023-04-06T12:59:30;8.00;;;6.33;;
11396;SDS011;5754;43.726;7.416;2023-04-06T13:02:08;7.07;;;5.43;;
11396;SDS011;5754;43.726;7.416;2023-04-06T13:04:43;9.60;;;6.23;;
11396;SDS011;5754;43.726;7.416;2023-04-06T13:07:21;9.13;;;6.63;;
11396;SDS011;5754;43.726;7.416;2023-04-06T13:09:56;9.60;;;6.33;;
11396;SDS011;5754;43.726;7.416;2023-04-06T13:12:31;8.83;;;6.20;;
11396;SDS011;5754;43.726;7.416;2023-04-06T13:15:06;9.90;;;5.93;;
11396;SDS011;5754;43.726;7.416;2023-04-06T13:17:42;7.10;;;5.40;;
11396;SDS011;5754;43.726;7.416;2023-04-06T13:20:16;9.20;;;6.27;;
11396;SDS011;5754;43.726;7.416;2023-04-06T13:22:52;6.50;;;5.90;;
11396;SDS011;5754;43.726;7.416;2023-04-06T13:25:26;7.27;;;5.80;;
11396;SDS011;5754;43.726;7.416;2023-04-06T13:28:01;6.80;;;6.00;;
11396;SDS011;5754;43.726;7.416;2023-04-06T13:30:36;10.00;;;6.07;;
11396;SDS011;5754;43.726;7.416;2023-04-06T13:33:11;6.17;;;5.57;;
11396;SDS011;5754;43.726;7.416;2023-04-06T13:35:45;6.30;;;5.40;;
11396;SDS011;5754;43.726;7.416;2023-04-06T13:38:20;7.77;;;5.20;;
11396;SDS011;5754;43.726;7.416;2023-04-06T13:40:54;8.43;;;6.13;;
11396;SDS011;5754;43.726;7.416;2023-04-06T13:43:30;8.33;;;6.00;;
11396;SDS011;5754;43.726;7.416;2023-04-06T13:46:04;9.10;;;6.10;;
11396;SDS011;5754;43.726;7.416;2023-04-06T13:48:38;7.80;;;5.80;;
11396;SDS011;5754;43.726;7.416;2023-04-06T13:51:13;7.23;;;5.10;;
11396;SDS011;5754;43.726;7.416;2023-04-06T13:53:48;6.87;;;5.33;;
11396;SDS011;5754;43.726;7.416;2023-04-06T13:56:26;10.13;;;6.10;;
11396;SDS011;5754;43.726;7.416;2023-04-06T13:59:00;6.50;;;5.33;;
11396;SDS011;5754;43.726;7.416;2023-04-06T14:01:34;9.33;;;5.90;;
11396;SDS011;5754;43.726;7.416;2023-04-06T14:04:09;8.17;;;5.50;;
11396;SDS011;5754;43.726;7.416;2023-04-06T14:06:44;7.37;;;5.30;;
11396;SDS011;5754;43.726;7.416;2023-04-06T14:09:20;5.47;;;4.97;;
11396;SDS011;5754;43.726;7.416;2023-04-06T14:11:55;7.63;;;4.93;;
11396;SDS011;5754;43.726;7.416;2023-04-06T14:14:30;5.53;;;4.90;;
11396;SDS011;5754;43.726;7.416;2023-04-06T14:17:04;8.80;;;5.87;;
11396;SDS011;5754;43.726;7.416;2023-04-06T14:19:40;29.90;;;16.57;;
11396;SDS011;5754;43.726;7.416;2023-04-06T14:22:15;28.63;;;13.10;;
11396;SDS011;5754;43.726;7.416;2023-04-06T14:24:49;11.27;;;6.77;;
11396;SDS011;5754;43.726;7.416;2023-04-06T14:27:24;7.53;;;5.60;;
11396;SDS011;5754;43.726;7.416;2023-04-06T14:29:59;7.23;;;5.50;;
11396;SDS011;5754;43.726;7.416;2023-04-06T14:32:34;9.27;;;5.57;;
11396;SDS011;5754;43.726;7.416;2023-04-06T14:35:09;10.27;;;5.77;;
11396;SDS011;5754;43.726;7.416;2023-04-06T14:37:44;7.63;;;5.47;;
11396;SDS011;5754;43.726;7.416;2023-04-06T14:40:18;5.87;;;4.77;;
11396;SDS011;5754;43.726;7.416;2023-04-06T14:42:53;7.57;;;4.73;;
11396;SDS011;5754;43.726;7.416;2023-04-06T14:45:29;6.33;;;5.17;;
11396;SDS011;5754;43.726;7.416;2023-04-06T14:48:03;7.03;;;4.77;;
11396;SDS011;5754;43.726;7.416;2023-04-06T14:50:40;7.03;;;5.10;;
11396;SDS011;5754;43.726;7.416;2023-04-06T14:53:19;5.57;;;4.37;;
11396;SDS011;5754;43.726;7.416;2023-04-06T14:55:56;6.93;;;3.93;;
11396;SDS011;5754;43.726;7.416;2023-04-06T14:58:31;8.90;;;4.87;;
11396;SDS011;5754;43.726;7.416;2023-04-06T15:01:06;7.70;;;4.20;;
11396;SDS011;5754;43.726;7.416;2023-04-06T15:03:41;9.03;;;4.40;;
11396;SDS011;5754;43.726;7.416;2023-04-06T15:06:17;8.03;;;4.23;;
11396;SDS011;5754;43.726;7.416;2023-04-06T15:08:53;7.90;;;4.43;;
11396;SDS011;5754;43.726;7.416;2023-04-06T15:11:28;5.27;;;3.70;;
11396;SDS011;5754;43.726;7.416;2023-04-06T15:14:02;5.10;;;3.90;;
11396;SDS011;5754;43.726;7.416;2023-04-06T15:16:37;7.27;;;3.80;;
11396;SDS011;5754;43.726;7.416;2023-04-06T15:19:11;5.87;;;3.60;;
11396;SDS011;5754;43.726;7.416;2023-04-06T15:21:46;7.90;;;3.50;;
11396;SDS011;5754;43.726;7.416;2023-04-06T15:24:20;4.63;;;4.00;;
11396;SDS011;5754;43.726;7.416;2023-04-06T15:26:55;11.67;;;5.47;;
11396;SDS011;5754;43.726;7.416;2023-04-06T15:29:31;5.47;;;3.77;;
11396;SDS011;5754;43.726;7.416;2023-04-06T15:32:07;4.30;;;3.90;;
11396;SDS011;5754;43.726;7.416;2023-04-06T15:34:42;5.07;;;3.30;;
11396;SDS011;5754;43.726;7.416;2023-04-06T15:37:17;8.03;;;3.77;;
11396;SDS011;5754;43.726;7.416;2023-04-06T15:39:51;5.17;;;3.40;;
11396;SDS011;5754;43.726;7.416;2023-04-06T15:42:26;6.00;;;4.17;;
11396;SDS011;5754;43.726;7.416;2023-04-06T15:45:01;9.37;;;3.67;;
11396;SDS011;5754;43.726;7.416;2023-04-06T15:47:40;7.33;;;3.40;;
11396;SDS011;5754;43.726;7.416;2023-04-06T15:50:15;6.23;;;3.07;;
11396;SDS011;5754;43.726;7.416;2023-04-06T15:52:51;4.90;;;3.33;;
11396;SDS011;5754;43.726;7.416;2023-04-06T15:55:26;6.23;;;3.43;;
11396;SDS011;5754;43.726;7.416;2023-04-06T15:58:01;5.23;;;3.20;;
11396;SDS011;5754;43.726;7.416;2023-04-06T16:00:36;5.87;;;3.67;;
11396;SDS011;5754;43.726;7.416;2023-04-06T16:03:11;5.03;;;3.53;;
11396;SDS011;5754;43.726;7.416;2023-04-06T16:05:46;4.97;;;3.40;;
11396;SDS011;5754;43.726;7.416;2023-04-06T16:08:21;9.47;;;3.93;;
11396;SDS011;5754;43.726;7.416;2023-04-06T16:10:56;7.30;;;3.33;;
11396;SDS011;5754;43.726;7.416;2023-04-06T16:13:31;5.27;;;3.30;;
11396;SDS011;5754;43.726;7.416;2023-04-06T16:16:06;4.43;;;3.77;;
11396;SDS011;5754;43.726;7.416;2023-04-06T16:18:41;5.17;;;3.57;;